createdAt,value
2023-04-15T00:00:57.539Z,4.40
2023-04-15T00:03:25.133Z,4.60
2023-04-15T00:05:52.749Z,4.97
2023-04-15T00:08:20.558Z,4.50
2023-04-15T00:10:47.835Z,3.92
2023-04-15T00:13:15.445Z,4.60
2023-04-15T00:15:43.165Z,4.57
2023-04-15T00:18:10.452Z,4.47
2023-04-15T00:20:37.775Z,4.55
2023-04-15T00:23:05.574Z,5.18
2023-04-15T00:25:32.996Z,4.82
2023-04-15T00:28:00.239Z,4.72
2023-04-15T00:30:27.379Z,4.72
2023-04-15T00:32:54.630Z,4.40
2023-04-15T00:35:24.022Z,5.43
2023-04-15T00:37:51.473Z,4.75
2023-04-15T00:40:20.277Z,4.80
2023-04-15T00:42:47.491Z,4.97
2023-04-15T00:45:15.546Z,4.88
2023-04-15T00:47:43.648Z,5.45
2023-04-15T00:50:11.323Z,5.32
2023-04-15T00:52:38.936Z,4.90
2023-04-15T00:55:06.588Z,4.93
2023-04-15T00:57:34.067Z,4.78
2023-04-15T01:00:01.631Z,4.93
2023-04-15T01:02:28.914Z,5.43
2023-04-15T01:04:57.144Z,4.72
2023-04-15T01:07:24.299Z,4.88
2023-04-15T01:09:51.684Z,4.75
2023-04-15T01:12:19.565Z,4.95
2023-04-15T01:14:46.653Z,5.25
2023-04-15T01:17:13.819Z,4.97
2023-04-15T01:19:41.485Z,4.60
2023-04-15T01:22:09.122Z,4.60
2023-04-15T01:24:38.759Z,4.80
2023-04-15T01:27:05.964Z,4.68
2023-04-15T01:29:33.749Z,5.00
2023-04-15T01:32:00.966Z,4.80
2023-04-15T01:34:28.093Z,5.00
2023-04-15T01:36:55.549Z,4.25
2023-04-15T01:39:22.734Z,4.75
2023-04-15T01:41:49.837Z,4.53
2023-04-15T01:44:17.023Z,4.80
2023-04-15T01:46:44.144Z,4.72
2023-04-15T01:49:11.637Z,4.68
2023-04-15T01:51:38.750Z,4.25
2023-04-15T01:54:07.081Z,4.65
2023-04-15T01:56:34.190Z,5.07
2023-04-15T01:59:01.925Z,4.82
2023-04-15T02:01:29.489Z,5.00
2023-04-15T02:03:59.652Z,4.30
2023-04-15T02:06:28.141Z,4.53
2023-04-15T02:08:56.006Z,4.63
2023-04-15T02:11:23.165Z,4.93
2023-04-15T02:13:50.295Z,4.90
2023-04-15T02:16:19.538Z,4.85
2023-04-15T02:18:47.040Z,4.57
2023-04-15T02:21:14.445Z,4.25
2023-04-15T02:23:41.662Z,4.38
2023-04-15T02:26:08.809Z,4.88
2023-04-15T02:28:36.163Z,4.55
2023-04-15T02:31:06.415Z,4.28
2023-04-15T02:33:33.629Z,4.25
2023-04-15T02:36:01.648Z,4.47
2023-04-15T02:38:29.268Z,4.18
2023-04-15T02:40:57.257Z,4.10
2023-04-15T02:43:24.489Z,4.55
2023-04-15T02:45:52.505Z,4.57
2023-04-15T02:48:21.969Z,4.60
2023-04-15T02:50:49.085Z,4.20
2023-04-15T02:53:17.495Z,4.25
2023-04-15T02:55:44.649Z,4.57
2023-04-15T02:58:11.809Z,4.30
2023-04-15T03:00:39.108Z,4.80
2023-04-15T03:03:07.091Z,4.20
2023-04-15T03:05:34.361Z,4.72
2023-04-15T03:08:04.128Z,4.53
2023-04-15T03:10:31.554Z,4.75
2023-04-15T03:12:58.762Z,4.63
2023-04-15T03:15:26.028Z,5.13
2023-04-15T03:17:54.871Z,4.60
2023-04-15T03:20:21.949Z,4.63
2023-04-15T03:22:49.325Z,4.55
2023-04-15T03:25:16.918Z,4.32
2023-04-15T03:27:44.086Z,4.68
2023-04-15T03:30:12.430Z,4.53
2023-04-15T03:32:40.868Z,4.90
2023-04-15T03:35:09.642Z,4.53
2023-04-15T03:37:36.847Z,4.82
2023-04-15T03:40:04.102Z,4.93
2023-04-15T03:42:31.606Z,4.97
2023-04-15T03:44:58.754Z,5.40
2023-04-15T03:47:25.926Z,5.10
2023-04-15T03:49:52.983Z,4.78
2023-04-15T03:52:20.044Z,5.00
2023-04-15T03:54:47.713Z,4.70
2023-04-15T03:57:14.830Z,4.93
2023-04-15T03:59:41.943Z,4.63
2023-04-15T04:02:09.111Z,5.40
2023-04-15T04:04:36.284Z,5.00
2023-04-15T04:07:03.533Z,4.93
2023-04-15T04:09:30.671Z,4.85
2023-04-15T04:11:57.884Z,4.93
2023-04-15T04:14:29.451Z,4.82
2023-04-15T04:16:57.444Z,4.88
2023-04-15T04:19:24.627Z,4.80
2023-04-15T04:21:51.994Z,5.25
2023-04-15T04:24:19.183Z,5.28
2023-04-15T04:26:46.297Z,5.25
2023-04-15T04:29:13.413Z,5.22
2023-04-15T04:31:40.665Z,4.68
2023-04-15T04:34:07.738Z,5.13
2023-04-15T04:36:34.931Z,5.43
2023-04-15T04:39:02.313Z,5.03
2023-04-15T04:41:29.786Z,5.38
2023-04-15T04:43:56.899Z,5.10
2023-04-15T04:46:24.120Z,4.55
2023-04-15T04:48:51.288Z,4.65
2023-04-15T04:51:18.853Z,5.07
2023-04-15T04:53:46.118Z,4.93
2023-04-15T04:56:13.260Z,5.70
2023-04-15T04:58:40.345Z,5.50
2023-04-15T05:01:07.820Z,5.55
2023-04-15T05:03:35.137Z,5.32
2023-04-15T05:06:06.107Z,5.85
2023-04-15T05:08:33.236Z,5.55
2023-04-15T05:11:00.558Z,4.82
2023-04-15T05:13:27.697Z,5.15
2023-04-15T05:15:54.872Z,5.32
2023-04-15T05:18:22.067Z,5.63
2023-04-15T05:20:50.091Z,5.78
2023-04-15T05:23:17.705Z,5.10
2023-04-15T05:25:45.041Z,5.25
2023-04-15T05:28:12.381Z,5.57
2023-04-15T05:30:39.560Z,5.72
2023-04-15T05:33:06.670Z,5.40
2023-04-15T05:35:33.809Z,5.50
2023-04-15T05:38:01.112Z,5.55
2023-04-15T05:40:28.305Z,4.97
2023-04-15T05:42:55.376Z,5.47
2023-04-15T05:45:22.487Z,5.75
2023-04-15T05:47:54.234Z,5.68
2023-04-15T05:50:21.617Z,6.35
2023-04-15T05:52:48.730Z,5.35
2023-04-15T05:55:16.077Z,5.30
2023-04-15T05:57:43.253Z,5.63
2023-04-15T06:00:10.580Z,5.97
2023-04-15T06:02:38.106Z,5.80
2023-04-15T06:05:09.833Z,5.80
2023-04-15T06:07:37.543Z,5.57
2023-04-15T06:10:05.772Z,5.40
2023-04-15T06:12:32.901Z,5.80
2023-04-15T06:15:00.369Z,6.25
2023-04-15T06:17:27.813Z,6.13
2023-04-15T06:19:55.796Z,5.85
2023-04-15T06:22:23.595Z,5.97
2023-04-15T06:24:51.482Z,5.63
2023-04-15T06:27:18.639Z,5.68
2023-04-15T06:29:46.252Z,5.95
2023-04-15T06:32:13.702Z,6.07
2023-04-15T06:34:40.780Z,6.18
2023-04-15T06:37:09.918Z,5.80
2023-04-15T06:39:37.695Z,6.35
2023-04-15T06:42:04.867Z,6.22
2023-04-15T06:44:33.795Z,5.72
2023-04-15T06:47:01.239Z,6.63
2023-04-15T06:49:28.316Z,6.40
2023-04-15T06:51:55.561Z,6.82
2023-04-15T06:54:22.916Z,6.22
2023-04-15T06:56:49.993Z,6.75
2023-04-15T06:59:17.137Z,5.70
2023-04-15T07:01:44.368Z,6.13
2023-04-15T07:04:12.601Z,5.95
2023-04-15T07:06:39.805Z,6.28
2023-04-15T07:09:06.921Z,6.40
2023-04-15T07:11:33.976Z,6.75
2023-04-15T07:14:01.373Z,5.80
2023-04-15T07:16:29.879Z,5.88
2023-04-15T07:18:57.196Z,6.05
2023-04-15T07:21:25.042Z,5.93
2023-04-15T07:23:52.482Z,6.10
2023-04-15T07:26:19.597Z,5.55
2023-04-15T07:28:47.415Z,6.05
2023-04-15T07:31:15.047Z,5.70
2023-04-15T07:33:42.232Z,5.30
2023-04-15T07:36:10.719Z,5.47
2023-04-15T07:38:37.883Z,5.57
2023-04-15T07:41:05.036Z,5.20
2023-04-15T07:43:32.102Z,5.10
2023-04-15T07:45:59.946Z,5.15
2023-04-15T07:48:27.121Z,5.18
2023-04-15T07:50:54.174Z,4.60
2023-04-15T07:53:21.309Z,4.47
2023-04-15T07:55:48.447Z,5.22
2023-04-15T07:58:15.610Z,5.03
2023-04-15T08:00:42.802Z,5.18
2023-04-15T08:03:10.127Z,5.00
2023-04-15T08:05:37.421Z,5.25
2023-04-15T08:08:04.979Z,4.60
2023-04-15T08:10:32.297Z,4.80
2023-04-15T08:12:59.527Z,4.95
2023-04-15T08:15:27.232Z,4.63
2023-04-15T08:17:54.346Z,4.43
2023-04-15T08:20:21.542Z,4.20
2023-04-15T08:22:51.848Z,4.25
2023-04-15T08:25:20.158Z,3.50
2023-04-15T08:27:47.274Z,4.13
2023-04-15T08:30:14.708Z,4.00
2023-04-15T08:32:43.152Z,3.28
2023-04-15T08:35:10.413Z,3.45
2023-04-15T08:37:37.517Z,3.30
2023-04-15T08:40:04.985Z,3.58
2023-04-15T08:42:33.478Z,3.92
2023-04-15T08:45:01.736Z,3.78
2023-04-15T08:47:33.908Z,4.20
2023-04-15T08:50:04.355Z,4.15
2023-04-15T08:52:32.148Z,4.13
2023-04-15T08:55:00.898Z,3.85
2023-04-15T08:57:29.066Z,3.50
2023-04-15T08:59:59.420Z,3.63
2023-04-15T09:02:27.294Z,3.55
2023-04-15T09:04:54.879Z,3.15
2023-04-15T09:07:22.325Z,3.50
2023-04-15T09:09:50.159Z,3.75
2023-04-15T09:12:17.485Z,3.80
2023-04-15T09:14:47.120Z,3.05
2023-04-15T09:17:14.219Z,3.25
2023-04-15T09:19:41.635Z,2.75
2023-04-15T09:22:08.767Z,2.65
2023-04-15T09:24:38.116Z,3.05
2023-04-15T09:27:05.448Z,2.70
2023-04-15T09:29:32.528Z,2.70
2023-04-15T09:32:10.123Z,3.05
2023-04-15T09:34:37.871Z,3.35
2023-04-15T09:37:04.975Z,3.03
2023-04-15T09:39:48.548Z,3.17
2023-04-15T09:42:17.401Z,3.20
2023-04-15T09:44:44.497Z,3.38
2023-04-15T09:47:27.632Z,3.40
2023-04-15T09:49:58.618Z,3.33
2023-04-15T09:52:26.092Z,3.05
2023-04-15T09:54:57.686Z,3.92
2023-04-15T09:57:25.313Z,3.42
2023-04-15T09:59:52.787Z,3.53
2023-04-15T10:02:23.335Z,3.70
2023-04-15T10:04:50.902Z,3.22
2023-04-15T10:07:20.647Z,3.20
2023-04-15T10:09:49.084Z,2.97
2023-04-15T10:12:19.590Z,2.50
2023-04-15T10:14:49.500Z,2.47
2023-04-15T10:17:18.499Z,2.25
2023-04-15T10:19:45.685Z,2.38
2023-04-15T10:22:13.131Z,2.88
2023-04-15T10:24:40.885Z,2.13
2023-04-15T10:27:08.230Z,2.88
2023-04-15T10:29:35.380Z,3.00
2023-04-15T10:32:02.705Z,3.00
2023-04-15T10:34:30.648Z,3.10
2023-04-15T10:36:58.977Z,2.83
2023-04-15T10:39:35.285Z,2.13
2023-04-15T10:42:20.580Z,2.30
2023-04-15T10:44:54.046Z,2.15
2023-04-15T10:47:22.085Z,2.35
2023-04-15T10:49:49.910Z,2.17
2023-04-15T10:52:18.148Z,2.45
2023-04-15T10:54:45.679Z,2.60
2023-04-15T10:57:17.090Z,2.03
2023-04-15T10:59:59.186Z,1.92
2023-04-15T11:02:44.574Z,2.30
2023-04-15T11:05:12.617Z,2.13
2023-04-15T11:07:50.378Z,1.85
2023-04-15T11:10:26.785Z,1.95
2023-04-15T11:12:59.995Z,2.00
2023-04-15T11:15:30.996Z,2.05
2023-04-15T11:17:58.644Z,2.72
2023-04-15T11:20:26.143Z,2.45
2023-04-15T11:23:14.655Z,2.50
2023-04-15T11:25:43.303Z,1.92
2023-04-15T11:28:11.902Z,2.30
2023-04-15T11:30:39.597Z,2.17
2023-04-15T11:33:08.562Z,2.50
2023-04-15T11:35:35.968Z,2.20
2023-04-15T11:38:06.498Z,2.20
2023-04-15T11:40:33.626Z,2.30
2023-04-15T11:43:11.140Z,2.20
2023-04-15T11:45:39.055Z,2.10
2023-04-15T11:48:10.520Z,2.28
2023-04-15T11:50:40.530Z,2.25
2023-04-15T11:53:11.863Z,1.90
2023-04-15T11:55:47.497Z,2.35
2023-04-15T11:58:22.328Z,2.15
2023-04-15T12:00:56.523Z,2.42
2023-04-15T12:03:25.207Z,2.20
2023-04-15T12:06:17.228Z,2.65
2023-04-15T12:11:37.068Z,2.00
2023-04-15T12:14:04.291Z,1.80
2023-04-15T12:16:31.642Z,1.65
2023-04-15T12:18:59.510Z,1.50
2023-04-15T12:21:28.154Z,1.60
2023-04-15T12:23:55.996Z,1.70
2023-04-15T12:26:30.245Z,1.92
2023-04-15T12:29:01.873Z,1.65
2023-04-15T12:31:29.142Z,2.00
2023-04-15T12:33:56.876Z,1.42
2023-04-15T12:36:24.328Z,1.83
2023-04-15T12:38:51.496Z,2.00
2023-04-15T12:41:18.593Z,1.80
2023-04-15T12:43:47.034Z,2.33
2023-04-15T12:46:15.907Z,1.65
2023-04-15T12:48:43.250Z,1.70
2023-04-15T12:51:10.328Z,1.50
2023-04-15T12:53:37.445Z,1.70
2023-04-15T12:56:04.605Z,1.60
2023-04-15T12:58:31.719Z,1.70
2023-04-15T13:00:58.911Z,1.77
2023-04-15T13:03:26.249Z,1.95
2023-04-15T13:05:53.491Z,1.70
2023-04-15T13:08:21.067Z,2.00
2023-04-15T13:10:48.250Z,2.00
2023-04-15T13:13:15.814Z,1.80
2023-04-15T13:15:45.604Z,1.85
2023-04-15T13:18:13.036Z,1.60
2023-04-15T13:20:40.790Z,1.70
2023-04-15T13:23:08.227Z,1.80
2023-04-15T13:25:35.339Z,1.80
2023-04-15T13:28:03.019Z,1.70
2023-04-15T13:30:31.208Z,1.60
2023-04-15T13:32:58.504Z,1.70
2023-04-15T13:35:25.776Z,1.83
2023-04-15T13:37:54.980Z,1.73
2023-04-15T13:40:22.055Z,1.55
2023-04-15T13:42:49.196Z,1.65
2023-04-15T13:45:16.323Z,2.30
2023-04-15T13:47:43.510Z,1.55
2023-04-15T13:50:11.116Z,1.30
2023-04-15T13:52:38.205Z,1.50
2023-04-15T13:55:18.324Z,1.35
2023-04-15T13:57:47.800Z,1.70
2023-04-15T14:00:15.430Z,1.45
2023-04-15T14:02:42.999Z,1.17
2023-04-15T14:05:11.282Z,1.17
2023-04-15T14:07:38.394Z,1.42
2023-04-15T14:10:05.737Z,1.30
2023-04-15T14:12:32.892Z,1.30
2023-04-15T14:15:00.244Z,1.60
2023-04-15T14:17:27.777Z,1.30
2023-04-15T14:19:54.908Z,1.73
2023-04-15T14:22:22.093Z,1.73
2023-04-15T14:24:49.284Z,1.80
2023-04-15T14:27:16.728Z,1.48
2023-04-15T14:29:43.921Z,1.20
2023-04-15T14:32:12.541Z,1.63
2023-04-15T14:34:40.317Z,1.40
2023-04-15T14:37:07.584Z,1.90
2023-04-15T14:39:34.632Z,1.50
2023-04-15T14:42:01.799Z,1.13
2023-04-15T14:44:29.152Z,1.23
2023-04-15T14:46:56.534Z,1.67
2023-04-15T14:49:24.355Z,1.33
2023-04-15T14:51:51.697Z,0.98
2023-04-15T14:54:19.773Z,1.55
2023-04-15T14:56:48.280Z,1.30
2023-04-15T14:59:15.454Z,1.40
2023-04-15T15:01:42.578Z,1.25
2023-04-15T15:04:10.958Z,1.15
2023-04-15T15:06:38.460Z,1.20
2023-04-15T15:09:05.910Z,1.40
2023-04-15T15:11:33.210Z,1.45
2023-04-15T15:14:00.575Z,1.40
2023-04-15T15:16:29.253Z,1.00
2023-04-15T15:18:56.739Z,1.10
2023-04-15T15:21:23.909Z,1.20
2023-04-15T15:23:50.997Z,1.25
2023-04-15T15:26:19.298Z,1.00
2023-04-15T15:28:46.702Z,1.08
2023-04-15T15:31:13.831Z,1.10
2023-04-15T15:33:40.996Z,1.10
2023-04-15T15:36:08.111Z,1.27
2023-04-15T15:38:35.610Z,0.77
2023-04-15T15:41:03.004Z,0.95
2023-04-15T15:43:30.339Z,1.27
2023-04-15T15:45:57.483Z,1.40
2023-04-15T15:48:24.761Z,1.08
2023-04-15T15:50:52.895Z,1.10
2023-04-15T15:53:21.256Z,1.30
2023-04-15T15:55:48.668Z,1.58
2023-04-15T15:58:16.642Z,1.10
2023-04-15T16:00:43.871Z,1.50
2023-04-15T16:03:11.221Z,1.27
2023-04-15T16:05:38.864Z,1.25
2023-04-15T16:08:06.289Z,1.70
2023-04-15T16:10:33.453Z,1.70
2023-04-15T16:13:00.672Z,1.38
2023-04-15T16:15:27.868Z,1.48
2023-04-15T16:17:54.988Z,1.40
2023-04-15T16:20:22.081Z,1.35
2023-04-15T16:22:49.178Z,1.30
2023-04-15T16:25:16.358Z,0.90
2023-04-15T16:27:57.815Z,1.50
2023-04-15T16:30:30.537Z,1.40
2023-04-15T16:32:58.060Z,1.23
2023-04-15T16:35:25.220Z,1.27
2023-04-15T16:37:52.345Z,1.20
2023-04-15T16:40:19.429Z,1.30
2023-04-15T16:42:46.765Z,1.10
2023-04-15T16:45:13.934Z,1.30
2023-04-15T16:47:41.668Z,1.20
2023-04-15T16:50:09.474Z,1.33
2023-04-15T16:52:36.684Z,1.02
2023-04-15T16:55:05.124Z,1.10
2023-04-15T16:57:54.052Z,1.10
2023-04-15T17:00:20.161Z,1.02
2023-04-15T17:02:47.366Z,1.00
2023-04-15T17:05:14.612Z,1.30
2023-04-15T17:07:41.819Z,0.95
2023-04-15T17:10:09.284Z,0.95
2023-04-15T17:12:36.421Z,1.10
2023-04-15T17:15:03.607Z,0.82
2023-04-15T17:17:30.805Z,1.10
2023-04-15T17:19:57.920Z,0.98
2023-04-15T17:22:25.045Z,1.02
2023-04-15T17:24:52.147Z,0.80
2023-04-15T17:27:19.245Z,1.40
2023-04-15T17:29:46.365Z,1.48
2023-04-15T17:32:13.616Z,1.08
2023-04-15T17:34:50.796Z,1.20
2023-04-15T17:37:18.602Z,1.45
2023-04-15T17:39:46.180Z,1.17
2023-04-15T17:42:14.096Z,1.38
2023-04-15T17:44:41.378Z,1.17
2023-04-15T17:47:08.555Z,1.15
2023-04-15T17:49:37.705Z,1.30
2023-04-15T17:52:04.859Z,1.48
2023-04-15T17:54:31.934Z,1.73
2023-04-15T17:57:00.027Z,1.40
2023-04-15T17:59:28.072Z,1.00
2023-04-15T18:01:56.076Z,1.45
2023-04-15T18:04:26.474Z,1.30
2023-04-15T18:06:54.159Z,1.67
2023-04-15T18:09:21.682Z,1.52
2023-04-15T18:11:49.076Z,1.38
2023-04-15T18:14:30.770Z,1.13
2023-04-15T18:17:00.918Z,1.05
2023-04-15T18:19:28.093Z,1.15
2023-04-15T18:21:55.365Z,1.17
2023-04-15T18:24:23.067Z,0.95
2023-04-15T18:26:50.238Z,1.40
2023-04-15T18:29:18.458Z,0.82
2023-04-15T18:31:45.598Z,1.10
2023-04-15T18:34:13.215Z,0.98
2023-04-15T18:36:40.466Z,1.23
2023-04-15T18:39:07.838Z,1.00
2023-04-15T18:41:35.305Z,0.95
2023-04-15T18:44:02.395Z,1.10
2023-04-15T18:46:29.595Z,1.20
2023-04-15T18:48:56.768Z,1.05
2023-04-15T18:51:23.821Z,1.20
2023-04-15T18:53:51.436Z,1.05
2023-04-15T18:56:18.614Z,1.40
2023-04-15T18:59:19.417Z,1.08
2023-04-15T19:01:33.442Z,1.10
2023-04-15T19:04:01.597Z,1.17
2023-04-15T19:06:29.384Z,1.10
2023-04-15T19:08:58.416Z,1.17
2023-04-15T19:11:26.082Z,0.93
2023-04-15T19:13:53.339Z,1.35
2023-04-15T19:16:20.631Z,1.00
2023-04-15T19:18:47.748Z,1.10
2023-04-15T19:21:15.226Z,1.40
2023-04-15T19:23:47.352Z,1.45
2023-04-15T19:26:14.519Z,1.30
2023-04-15T19:28:41.741Z,1.27
2023-04-15T19:31:08.902Z,1.00
2023-04-15T19:33:36.089Z,1.30
2023-04-15T19:36:04.296Z,1.40
2023-04-15T19:38:31.657Z,1.27
2023-04-15T19:40:59.127Z,1.27
2023-04-15T19:43:26.372Z,1.70
2023-04-15T19:45:54.624Z,1.23
2023-04-15T19:48:23.152Z,1.65
2023-04-15T19:50:50.457Z,1.40
2023-04-15T19:53:17.590Z,1.35
2023-04-15T19:55:44.896Z,1.20
2023-04-15T19:58:12.026Z,1.30
2023-04-15T20:00:39.308Z,1.30
2023-04-15T20:03:06.543Z,1.65
2023-04-15T20:05:33.814Z,1.70
2023-04-15T20:08:01.620Z,1.20
2023-04-15T20:10:29.677Z,1.30
2023-04-15T20:12:56.904Z,1.13
2023-04-15T20:15:24.264Z,1.20
2023-04-15T20:17:51.582Z,1.55
2023-04-15T20:20:18.858Z,1.60
2023-04-15T20:22:45.992Z,1.30
2023-04-15T20:25:13.084Z,1.40
2023-04-15T20:27:40.346Z,1.85
2023-04-15T20:30:07.765Z,1.30
2023-04-15T20:32:36.090Z,1.45
2023-04-15T20:35:04.305Z,1.70
2023-04-15T20:37:33.448Z,1.30
2023-04-15T20:40:00.996Z,1.50
2023-04-15T20:42:28.235Z,1.80
2023-04-15T20:44:55.523Z,2.05
2023-04-15T20:47:22.710Z,1.85
2023-04-15T20:49:49.894Z,1.88
2023-04-15T20:52:17.035Z,1.88
2023-04-15T20:54:44.683Z,1.70
2023-04-15T20:57:11.794Z,1.63
2023-04-15T20:59:38.865Z,1.73
2023-04-15T21:02:06.150Z,1.80
2023-04-15T21:04:33.373Z,2.05
2023-04-15T21:07:00.568Z,1.65
2023-04-15T21:09:27.738Z,1.85
2023-04-15T21:12:01.019Z,1.95
2023-04-15T21:14:28.970Z,2.25
2023-04-15T21:16:57.997Z,1.98
2023-04-15T21:19:25.168Z,1.80
2023-04-15T21:21:52.776Z,1.98
2023-04-15T21:24:19.916Z,1.50
2023-04-15T21:26:46.985Z,1.35
2023-04-15T21:29:14.349Z,1.38
2023-04-15T21:31:41.848Z,1.90
2023-04-15T21:34:09.155Z,1.45
2023-04-15T21:36:36.385Z,1.77
2023-04-15T21:39:03.704Z,1.67
2023-04-15T21:41:31.140Z,1.60
2023-04-15T21:43:58.201Z,1.70
2023-04-15T21:46:32.592Z,1.67
2023-04-15T21:49:00.645Z,1.85
2023-04-15T21:51:28.077Z,1.70
2023-04-15T21:53:55.941Z,1.77
2023-04-15T21:56:24.258Z,1.70
2023-04-15T21:58:51.920Z,1.73
2023-04-15T22:01:19.076Z,1.80
2023-04-15T22:03:46.300Z,1.58
2023-04-15T22:06:13.884Z,1.70
2023-04-15T22:08:54.826Z,1.60
2023-04-15T22:11:28.489Z,1.65
2023-04-15T22:13:56.955Z,1.50
2023-04-15T22:16:25.375Z,1.52
2023-04-15T22:18:52.662Z,1.50
2023-04-15T22:21:19.742Z,1.65
2023-04-15T22:23:47.406Z,2.13
2023-04-15T22:26:14.667Z,2.25
2023-04-15T22:28:41.950Z,2.00
2023-04-15T22:31:09.133Z,1.67
2023-04-15T22:33:36.385Z,2.00
2023-04-15T22:36:03.565Z,3.15
2023-04-15T22:38:30.787Z,2.42
2023-04-15T22:40:58.343Z,2.50
2023-04-15T22:43:27.369Z,1.90
2023-04-15T22:45:54.987Z,2.53
2023-04-15T22:48:22.437Z,2.35
2023-04-15T22:50:49.753Z,2.30
2023-04-15T22:53:17.726Z,2.95
2023-04-15T22:55:46.146Z,2.22
2023-04-15T22:58:13.226Z,1.98
2023-04-15T23:00:40.434Z,2.15
2023-04-15T23:03:07.765Z,2.00
2023-04-15T23:05:35.087Z,2.03
2023-04-15T23:08:02.258Z,2.20
2023-04-15T23:10:29.843Z,2.00
2023-04-15T23:12:56.976Z,2.35
2023-04-15T23:15:24.121Z,1.80
2023-04-15T23:17:51.300Z,2.42
2023-04-15T23:20:18.453Z,2.05
2023-04-15T23:22:45.775Z,1.95
2023-04-15T23:25:12.940Z,2.05
2023-04-15T23:27:40.072Z,2.22
2023-04-15T23:30:07.636Z,2.50
2023-04-15T23:32:35.856Z,3.08
2023-04-15T23:35:03.001Z,2.33
2023-04-15T23:37:31.525Z,3.17
2023-04-15T23:39:58.617Z,3.50
2023-04-15T23:42:25.951Z,2.75
2023-04-15T23:44:53.280Z,2.75
2023-04-15T23:47:20.362Z,2.58
2023-04-15T23:49:47.518Z,2.78
2023-04-15T23:52:14.724Z,2.45
2023-04-15T23:54:41.914Z,2.63
2023-04-15T23:57:09.010Z,2.00
2023-04-15T23:59:36.195Z,2.60
